Time;durP1;ratioP1;P1;durP2;ratioP2;P2;SDS_P1;SDS_P2;PMS_P1;PMS_P2;Temp;Humidity;BMP_temperature;BMP_pressure;BME280_temperature;BME280_humidity;BME280_pressure;Samples;Min_cycle;Max_cycle;Signal;HPM_P1;HPM_P2
2021/12/19 00:01:25;;;;;;;0.10;0.10;;;;;;;;;;6270319;22;20010;-63
2021/12/19 00:09:01;;;;;;;0.38;0.38;;;;;;;;;;6269574;22;20007;-63
2021/12/19 00:11:29;;;;;;;0.00;0.00;;;;;;;;;;6271410;22;19996;-63
2021/12/19 00:13:55;;;;;;;0.00;0.00;;;;;;;;;;6270491;22;20007;-63
2021/12/19 00:16:21;;;;;;;0.00;0.00;;;;;;;;;;6269427;22;20056;-62
2021/12/19 00:18:47;;;;;;;0.00;0.00;;;;;;;;;;6271267;22;20004;-63
2021/12/19 00:21:15;;;;;;;0.00;0.00;;;;;;;;;;6270563;22;20842;-62
2021/12/19 00:23:40;;;;;;;0.00;0.00;;;;;;;;;;6270575;22;20713;-62
2021/12/19 00:26:05;;;;;;;0.00;0.00;;;;;;;;;;6270353;22;19996;-62
2021/12/19 00:28:30;;;;;;;0.85;0.52;;;;;;;;;;6270743;22;20455;-63
2021/12/19 00:30:56;;;;;;;0.00;0.00;;;;;;;;;;6270510;22;20029;-62
2021/12/19 00:33:21;;;;;;;0.00;0.00;;;;;;;;;;6270795;22;20006;-63
2021/12/19 00:35:47;;;;;;;0.57;0.57;;;;;;;;;;6270376;22;19999;-62
2021/12/19 00:38:12;;;;;;;0.00;0.00;;;;;;;;;;6270156;22;20796;-62
2021/12/19 00:40:38;;;;;;;0.00;0.00;;;;;;;;;;6271123;22;20000;-62
2021/12/19 00:43:06;;;;;;;0.00;0.00;;;;;;;;;;6270232;22;20425;-62
2021/12/19 00:45:34;;;;;;;0.00;0.00;;;;;;;;;;6270310;22;20006;-64
2021/12/19 00:48:00;;;;;;;0.00;0.00;;;;;;;;;;6270080;22;20007;-64
2021/12/19 00:50:26;;;;;;;1.40;1.40;;;;;;;;;;6270149;22;19998;-63
2021/12/19 00:52:51;;;;;;;0.00;0.00;;;;;;;;;;6270893;22;19995;-63
2021/12/19 00:55:18;;;;;;;0.00;0.00;;;;;;;;;;6270314;22;20006;-63
2021/12/19 00:57:44;;;;;;;0.30;0.30;;;;;;;;;;6270810;22;20314;-63
2021/12/19 01:00:11;;;;;;;0.98;0.98;;;;;;;;;;6269988;22;20004;-63
2021/12/19 01:02:36;;;;;;;0.15;0.15;;;;;;;;;;6270880;22;20004;-63
2021/12/19 01:05:03;;;;;;;0.00;0.00;;;;;;;;;;6243904;22;20459;-64
2021/12/19 01:07:28;;;;;;;5.38;5.10;;;;;;;;;;6244375;22;20004;-62
2021/12/19 01:09:56;;;;;;;0.63;0.63;;;;;;;;;;6271040;22;20006;-63
2021/12/19 01:12:23;;;;;;;0.00;0.00;;;;;;;;;;6270913;22;20006;-63
2021/12/19 01:14:48;;;;;;;0.00;0.00;;;;;;;;;;6270219;22;20088;-62
2021/12/19 01:17:14;;;;;;;0.00;0.00;;;;;;;;;;6270781;22;19999;-63
2021/12/19 01:19:39;;;;;;;0.00;0.00;;;;;;;;;;6270476;22;20007;-63
2021/12/19 01:22:05;;;;;;;0.00;0.00;;;;;;;;;;6270125;22;20057;-62
2021/12/19 01:24:30;;;;;;;0.00;0.00;;;;;;;;;;6271028;22;20452;-63
2021/12/19 01:26:55;;;;;;;0.65;0.65;;;;;;;;;;6270609;22;19992;-64
2021/12/19 01:29:21;;;;;;;0.38;0.13;;;;;;;;;;6271052;22;19998;-63
2021/12/19 01:31:46;;;;;;;0.00;0.00;;;;;;;;;;6270843;22;20008;-62
2021/12/19 01:34:14;;;;;;;0.00;0.00;;;;;;;;;;6270567;22;20042;-63
2021/12/19 01:36:43;;;;;;;0.00;0.00;;;;;;;;;;6243813;22;20089;-63
2021/12/19 01:39:10;;;;;;;0.30;0.30;;;;;;;;;;6270246;22;20039;-63
2021/12/19 01:41:42;;;;;;;0.00;0.00;;;;;;;;;;6270380;22;20481;-63
2021/12/19 01:44:08;;;;;;;0.00;0.00;;;;;;;;;;6270212;22;19996;-62
2021/12/19 01:46:33;;;;;;;0.43;0.43;;;;;;;;;;6270986;22;20045;-62
2021/12/19 01:48:58;;;;;;;0.55;0.47;;;;;;;;;;6270335;22;20000;-63
2021/12/19 01:51:23;;;;;;;0.00;0.00;;;;;;;;;;6271096;22;20098;-63
2021/12/19 01:53:49;;;;;;;0.00;0.00;;;;;;;;;;6271251;22;20084;-63
2021/12/19 01:56:17;;;;;;;0.00;0.00;;;;;;;;;;6271762;22;20078;-63
2021/12/19 01:58:45;;;;;;;0.00;0.00;;;;;;;;;;6271744;22;20020;-63
2021/12/19 02:01:10;;;;;;;0.00;0.00;;;;;;;;;;6270551;22;20000;-63
2021/12/19 02:03:37;;;;;;;0.00;0.00;;;;;;;;;;6272152;22;20313;-64
2021/12/19 02:06:03;;;;;;;0.52;0.52;;;;;;;;;;6271325;22;20351;-63
2021/12/19 02:08:28;;;;;;;0.00;0.00;;;;;;;;;;6271599;22;20078;-63
2021/12/19 02:10:53;;;;;;;0.00;0.00;;;;;;;;;;6271446;22;20081;-63
2021/12/19 02:13:19;;;;;;;0.17;0.17;;;;;;;;;;6271294;22;19999;-64
2021/12/19 02:15:45;;;;;;;0.00;0.00;;;;;;;;;;6271674;22;20008;-63
2021/12/19 02:18:18;;;;;;;0.00;0.00;;;;;;;;;;6244022;22;19996;-63
2021/12/19 02:20:50;;;;;;;1.48;1.38;;;;;;;;;;6244857;22;20073;-63
2021/12/19 02:23:16;;;;;;;0.00;0.00;;;;;;;;;;6270936;22;20406;-61
2021/12/19 02:25:41;;;;;;;1.73;1.65;;;;;;;;;;6272193;22;19996;-64
2021/12/19 02:28:07;;;;;;;2.78;1.17;;;;;;;;;;6271023;22;20002;-62
2021/12/19 02:30:33;;;;;;;0.00;0.00;;;;;;;;;;6272518;22;20003;-62
2021/12/19 02:32:58;;;;;;;0.00;0.00;;;;;;;;;;6246431;22;20057;-63
2021/12/19 02:35:28;;;;;;;0.00;0.00;;;;;;;;;;6273718;22;19999;-62
2021/12/19 02:48:18;;;;;;;0.00;0.00;;;;;;;;;;6273205;22;20047;-63
2021/12/19 02:50:49;;;;;;;0.00;0.00;;;;;;;;;;6273470;22;20389;-63
2021/12/19 02:53:17;;;;;;;0.00;0.00;;;;;;;;;;6273203;22;20030;-63
2021/12/19 02:55:43;;;;;;;0.00;0.00;;;;;;;;;;6273609;22;19999;-62
2021/12/19 02:58:09;;;;;;;0.00;0.00;;;;;;;;;;6273128;22;20103;-63
2021/12/19 03:00:34;;;;;;;0.00;0.00;;;;;;;;;;6273518;22;20031;-63
2021/12/19 03:02:59;;;;;;;0.00;0.00;;;;;;;;;;6273161;22;20342;-62
2021/12/19 03:05:25;;;;;;;0.00;0.00;;;;;;;;;;6273596;22;20018;-62
2021/12/19 03:07:52;;;;;;;0.00;0.00;;;;;;;;;;6274229;22;19999;-61
2021/12/19 03:18:24;;;;;;;0.00;0.00;;;;;;;;;;6273034;22;20080;-59
2021/12/19 03:20:49;;;;;;;0.00;0.00;;;;;;;;;;6274161;22;20027;-60
2021/12/19 03:23:14;;;;;;;0.00;0.00;;;;;;;;;;6273193;22;20003;-59
2021/12/19 03:25:40;;;;;;;5.55;5.38;;;;;;;;;;6273046;22;20070;-60
2021/12/19 03:28:06;;;;;;;0.65;0.65;;;;;;;;;;6272434;22;20367;-59
2021/12/19 03:30:32;;;;;;;0.00;0.00;;;;;;;;;;6272615;22;20754;-59
2021/12/19 03:32:57;;;;;;;0.00;0.00;;;;;;;;;;6272859;22;20007;-59
2021/12/19 03:35:23;;;;;;;0.00;0.00;;;;;;;;;;6272292;22;20011;-60
2021/12/19 03:37:50;;;;;;;0.00;0.00;;;;;;;;;;6272732;22;20333;-59
2021/12/19 03:40:22;;;;;;;0.00;0.00;;;;;;;;;;6272470;22;20088;-60
2021/12/19 03:42:49;;;;;;;0.00;0.00;;;;;;;;;;6272658;22;20003;-60
2021/12/19 03:45:15;;;;;;;0.00;0.00;;;;;;;;;;6272509;22;20062;-60
2021/12/19 03:47:41;;;;;;;1.67;1.67;;;;;;;;;;6273368;22;19992;-60
2021/12/19 03:50:08;;;;;;;0.00;0.00;;;;;;;;;;6272725;22;19999;-60
2021/12/19 03:52:33;;;;;;;0.00;0.00;;;;;;;;;;6272909;22;19996;-59
2021/12/19 03:54:59;;;;;;;0.00;0.00;;;;;;;;;;6271411;22;19998;-60
2021/12/19 03:57:24;;;;;;;0.60;0.47;;;;;;;;;;6271927;22;20023;-59
2021/12/19 03:59:49;;;;;;;0.00;0.00;;;;;;;;;;6272996;22;20015;-58
2021/12/19 04:02:24;;;;;;;0.17;0.17;;;;;;;;;;6272805;22;19996;-59
2021/12/19 04:04:49;;;;;;;0.00;0.00;;;;;;;;;;6273121;22;20028;-58
2021/12/19 04:07:14;;;;;;;0.90;0.90;;;;;;;;;;6271591;22;20291;-59
2021/12/19 04:09:39;;;;;;;0.00;0.00;;;;;;;;;;6272770;22;20000;-59
2021/12/19 04:12:05;;;;;;;1.88;1.88;;;;;;;;;;6272284;22;19992;-59
2021/12/19 04:14:30;;;;;;;0.00;0.00;;;;;;;;;;6272873;22;20004;-60
2021/12/19 04:16:55;;;;;;;2.72;0.85;;;;;;;;;;6272639;22;20010;-60
2021/12/19 04:19:21;;;;;;;0.00;0.00;;;;;;;;;;6272804;22;20298;-61
2021/12/19 04:21:46;;;;;;;0.10;0.10;;;;;;;;;;6272954;22;20084;-59
2021/12/19 04:24:11;;;;;;;1.02;1.02;;;;;;;;;;6272173;22;19992;-59
2021/12/19 04:26:37;;;;;;;0.00;0.00;;;;;;;;;;6245186;22;20504;-59
2021/12/19 04:29:02;;;;;;;0.00;0.00;;;;;;;;;;6272335;22;20438;-59
2021/12/19 04:31:27;;;;;;;0.00;0.00;;;;;;;;;;6272315;22;20569;-58
2021/12/19 04:33:52;;;;;;;0.00;0.00;;;;;;;;;;6270913;22;20035;-59
2021/12/19 04:36:25;;;;;;;0.00;0.00;;;;;;;;;;6271244;22;20008;-59
2021/12/19 04:39:40;;;;;;;0.00;0.00;;;;;;;;;;6272650;22;20003;-59
2021/12/19 04:44:39;;;;;;;0.00;0.00;;;;;;;;;;6271572;22;20026;-58
2021/12/19 04:57:46;;;;;;;0.00;0.00;;;;;;;;;;6272613;22;20060;-59
2021/12/19 05:00:16;;;;;;;0.00;0.00;;;;;;;;;;6272119;22;20027;-59
2021/12/19 05:16:03;;;;;;;0.00;0.00;;;;;;;;;;6272292;22;20486;-59
2021/12/19 05:18:31;;;;;;;0.00;0.00;;;;;;;;;;6271219;22;20007;-60
2021/12/19 05:21:01;;;;;;;0.00;0.00;;;;;;;;;;6272517;22;20321;-59
2021/12/19 05:25:52;;;;;;;0.00;0.00;;;;;;;;;;6271666;22;20004;-58
2021/12/19 05:28:17;;;;;;;0.00;0.00;;;;;;;;;;6271369;22;19992;-60
2021/12/19 05:30:42;;;;;;;0.93;0.93;;;;;;;;;;6271910;22;20102;-60
2021/12/19 05:33:07;;;;;;;0.00;0.00;;;;;;;;;;6270954;22;20074;-60
2021/12/19 05:46:18;;;;;;;2.10;2.10;;;;;;;;;;6271139;22;20042;-60
2021/12/19 05:48:44;;;;;;;0.00;0.00;;;;;;;;;;6244977;22;20000;-59
2021/12/19 05:51:09;;;;;;;0.00;0.00;;;;;;;;;;6271567;22;20004;-59
2021/12/19 05:53:34;;;;;;;0.00;0.00;;;;;;;;;;6272001;22;20083;-58
2021/12/19 05:55:59;;;;;;;0.00;0.00;;;;;;;;;;6272074;22;19999;-59
2021/12/19 05:58:25;;;;;;;0.00;0.00;;;;;;;;;;6271328;22;20015;-58
2021/12/19 06:00:50;;;;;;;0.00;0.00;;;;;;;;;;6271930;22;20018;-59
2021/12/19 06:03:15;;;;;;;0.00;0.00;;;;;;;;;;6271238;22;20004;-59
2021/12/19 06:05:40;;;;;;;0.00;0.00;;;;;;;;;;6273306;22;20329;-60
2021/12/19 06:08:05;;;;;;;0.00;0.00;;;;;;;;;;6274584;22;20487;-60
2021/12/19 06:10:31;;;;;;;0.00;0.00;;;;;;;;;;6273830;22;20070;-59
2021/12/19 06:12:57;;;;;;;0.00;0.00;;;;;;;;;;6273938;22;20031;-60
2021/12/19 06:15:23;;;;;;;0.28;0.28;;;;;;;;;;6272868;22;20003;-58
2021/12/19 06:17:48;;;;;;;0.00;0.00;;;;;;;;;;6273835;22;20004;-58
2021/12/19 06:20:18;;;;;;;0.00;0.00;;;;;;;;;;6273421;22;20088;-59
2021/12/19 06:22:43;;;;;;;0.00;0.00;;;;;;;;;;6273344;22;20003;-58
2021/12/19 06:25:09;;;;;;;0.43;0.43;;;;;;;;;;6273191;22;20498;-59
2021/12/19 06:27:34;;;;;;;0.00;0.00;;;;;;;;;;6273862;22;20050;-59
2021/12/19 06:29:59;;;;;;;0.00;0.00;;;;;;;;;;6273391;22;19999;-60
2021/12/19 06:32:25;;;;;;;0.00;0.00;;;;;;;;;;6273551;22;19992;-59
2021/12/19 06:34:50;;;;;;;0.75;0.75;;;;;;;;;;6273731;22;19999;-59
2021/12/19 06:37:15;;;;;;;0.00;0.00;;;;;;;;;;6273415;22;20026;-60
2021/12/19 06:39:40;;;;;;;0.00;0.00;;;;;;;;;;6273647;22;20428;-60
2021/12/19 06:42:07;;;;;;;0.00;0.00;;;;;;;;;;6273756;22;20237;-60
2021/12/19 06:44:33;;;;;;;0.00;0.00;;;;;;;;;;6273415;22;20000;-60
2021/12/19 06:46:58;;;;;;;0.00;0.00;;;;;;;;;;6273982;22;20473;-60
2021/12/19 06:49:23;;;;;;;0.00;0.00;;;;;;;;;;6272769;22;20443;-59
2021/12/19 06:51:49;;;;;;;0.00;0.00;;;;;;;;;;6273888;22;20027;-58
2021/12/19 06:54:14;;;;;;;0.00;0.00;;;;;;;;;;6273009;22;20007;-60
2021/12/19 06:56:39;;;;;;;0.00;0.00;;;;;;;;;;6246603;22;20004;-60
2021/12/19 06:59:04;;;;;;;0.10;0.10;;;;;;;;;;6273114;22;20062;-59
2021/12/19 07:01:29;;;;;;;0.57;0.57;;;;;;;;;;6273048;22;20079;-59
2021/12/19 07:03:55;;;;;;;3.50;0.90;;;;;;;;;;6273973;22;19996;-60
2021/12/19 07:06:20;;;;;;;0.10;0.10;;;;;;;;;;6273243;22;19992;-60
2021/12/19 07:08:45;;;;;;;0.00;0.00;;;;;;;;;;6273542;22;19999;-59
2021/12/19 07:11:10;;;;;;;0.00;0.00;;;;;;;;;;6272722;22;19999;-59
2021/12/19 07:13:36;;;;;;;1.65;1.02;;;;;;;;;;6273648;22;20004;-59
2021/12/19 07:16:01;;;;;;;0.63;0.52;;;;;;;;;;6245973;22;20023;-58
2021/12/19 07:18:26;;;;;;;0.98;0.98;;;;;;;;;;6272260;22;20333;-58
2021/12/19 07:20:51;;;;;;;0.00;0.00;;;;;;;;;;6273611;22;19996;-60
2021/12/19 07:23:18;;;;;;;0.03;0.03;;;;;;;;;;6272866;22;20341;-58
2021/12/19 07:25:43;;;;;;;0.00;0.00;;;;;;;;;;6273108;22;20010;-59
2021/12/19 07:28:09;;;;;;;0.35;0.35;;;;;;;;;;6272471;22;20661;-60
2021/12/19 07:30:36;;;;;;;2.10;2.10;;;;;;;;;;6272868;22;20330;-60
2021/12/19 07:33:05;;;;;;;0.20;0.20;;;;;;;;;;6273661;22;19999;-60
2021/12/19 07:35:34;;;;;;;0.28;0.28;;;;;;;;;;6272961;22;20004;-59
2021/12/19 07:37:59;;;;;;;0.13;0.13;;;;;;;;;;6272926;22;20049;-59
2021/12/19 07:40:28;;;;;;;0.00;0.00;;;;;;;;;;6272960;22;20004;-59
2021/12/19 07:42:54;;;;;;;0.93;0.93;;;;;;;;;;6273219;22;20407;-58
2021/12/19 07:45:19;;;;;;;0.00;0.00;;;;;;;;;;6272847;22;19996;-59
2021/12/19 07:47:45;;;;;;;0.00;0.00;;;;;;;;;;6273453;22;19995;-59
2021/12/19 07:50:11;;;;;;;0.00;0.00;;;;;;;;;;6273212;22;19999;-60
2021/12/19 07:52:37;;;;;;;2.80;2.63;;;;;;;;;;6273126;22;20002;-59
2021/12/19 07:55:03;;;;;;;0.60;0.60;;;;;;;;;;6272763;22;20461;-59
2021/12/19 07:57:28;;;;;;;2.65;0.93;;;;;;;;;;6271642;22;20006;-59
2021/12/19 07:59:54;;;;;;;0.00;0.00;;;;;;;;;;6272673;22;20055;-58
2021/12/19 08:02:19;;;;;;;0.40;0.40;;;;;;;;;;6272506;22;20039;-58
2021/12/19 08:04:44;;;;;;;1.33;1.27;;;;;;;;;;6271650;22;20073;-58
2021/12/19 08:07:12;;;;;;;2.35;1.02;;;;;;;;;;6272640;22;19996;-59
2021/12/19 08:09:46;;;;;;;0.00;0.00;;;;;;;;;;6272377;22;20311;-59
2021/12/19 08:12:11;;;;;;;0.00;0.00;;;;;;;;;;6272341;22;20006;-59
2021/12/19 08:14:37;;;;;;;6.82;0.68;;;;;;;;;;6272057;22;20023;-58
2021/12/19 08:17:02;;;;;;;0.20;0.20;;;;;;;;;;6245199;22;20465;-58
2021/12/19 08:19:27;;;;;;;3.10;2.00;;;;;;;;;;6271503;22;20022;-58
2021/12/19 08:21:53;;;;;;;0.00;0.00;;;;;;;;;;6272623;22;20433;-59
2021/12/19 08:24:22;;;;;;;0.98;0.47;;;;;;;;;;6271791;22;20004;-59
2021/12/19 08:26:47;;;;;;;4.57;4.47;;;;;;;;;;6271855;22;19996;-59
2021/12/19 08:29:13;;;;;;;0.00;0.00;;;;;;;;;;6272924;22;20091;-60
2021/12/19 08:31:39;;;;;;;0.55;0.55;;;;;;;;;;6272064;22;20036;-58
2021/12/19 08:34:04;;;;;;;0.00;0.00;;;;;;;;;;6272504;22;20412;-59
2021/12/19 08:36:30;;;;;;;0.30;0.30;;;;;;;;;;6271186;22;20007;-59
2021/12/19 08:38:55;;;;;;;0.00;0.00;;;;;;;;;;6271000;22;20070;-58
2021/12/19 08:41:20;;;;;;;1.00;1.00;;;;;;;;;;6270798;22;19995;-59
2021/12/19 08:43:49;;;;;;;0.00;0.00;;;;;;;;;;6272033;22;19995;-59
2021/12/19 08:46:14;;;;;;;0.00;0.00;;;;;;;;;;6271679;22;19991;-59
2021/12/19 08:48:40;;;;;;;0.00;0.00;;;;;;;;;;6272257;22;20325;-59
2021/12/19 08:51:06;;;;;;;0.22;0.22;;;;;;;;;;6271748;22;19995;-59
2021/12/19 08:53:31;;;;;;;0.00;0.00;;;;;;;;;;6271173;22;20023;-58
2021/12/19 08:55:56;;;;;;;0.00;0.00;;;;;;;;;;6272040;22;20046;-59
2021/12/19 08:58:22;;;;;;;0.00;0.00;;;;;;;;;;6271088;22;20012;-59
2021/12/19 09:00:47;;;;;;;0.75;0.75;;;;;;;;;;6271785;22;20477;-60
2021/12/19 09:03:13;;;;;;;1.48;1.38;;;;;;;;;;6271750;22;20000;-59
2021/12/19 09:05:38;;;;;;;0.00;0.00;;;;;;;;;;6271007;22;20010;-59
2021/12/19 09:08:04;;;;;;;0.00;0.00;;;;;;;;;;6271999;22;19999;-59
2021/12/19 09:10:29;;;;;;;0.00;0.00;;;;;;;;;;6270749;22;20303;-58
2021/12/19 09:12:54;;;;;;;1.08;1.08;;;;;;;;;;6271625;22;20019;-58
2021/12/19 09:15:20;;;;;;;0.00;0.00;;;;;;;;;;6271487;22;20006;-57
2021/12/19 09:17:46;;;;;;;0.00;0.00;;;;;;;;;;6272148;22;20008;-59
2021/12/19 09:20:11;;;;;;;0.00;0.00;;;;;;;;;;6271901;22;20011;-60
2021/12/19 09:22:37;;;;;;;7.72;7.38;;;;;;;;;;6270928;22;20057;-59
2021/12/19 09:25:03;;;;;;;2.50;2.40;;;;;;;;;;6271588;22;20004;-58
2021/12/19 09:27:28;;;;;;;0.00;0.00;;;;;;;;;;6270508;22;19999;-59
2021/12/19 09:29:54;;;;;;;3.30;1.77;;;;;;;;;;6271454;22;20014;-60
2021/12/19 09:32:19;;;;;;;4.80;1.55;;;;;;;;;;6270953;22;19999;-60
2021/12/19 09:34:45;;;;;;;0.90;0.90;;;;;;;;;;6270981;22;20414;-58
2021/12/19 09:37:10;;;;;;;0.00;0.00;;;;;;;;;;6271540;22;20078;-59
2021/12/19 09:39:36;;;;;;;0.00;0.00;;;;;;;;;;6270946;22;20074;-59
2021/12/19 09:42:07;;;;;;;0.17;0.17;;;;;;;;;;6269206;22;20010;-59
2021/12/19 09:44:33;;;;;;;0.00;0.00;;;;;;;;;;6270361;22;20075;-59
2021/12/19 09:46:58;;;;;;;1.65;1.65;;;;;;;;;;6271017;22;20003;-58
2021/12/19 09:49:24;;;;;;;0.00;0.00;;;;;;;;;;6269052;22;19996;-60
2021/12/19 09:51:49;;;;;;;0.10;0.10;;;;;;;;;;6269893;22;19996;-58
2021/12/19 09:54:15;;;;;;;0.00;0.00;;;;;;;;;;6270641;22;20004;-58
2021/12/19 09:56:42;;;;;;;0.30;0.30;;;;;;;;;;6269812;22;20000;-58
2021/12/19 09:59:09;;;;;;;4.95;1.38;;;;;;;;;;6270141;22;20015;-59
2021/12/19 10:01:34;;;;;;;0.10;0.10;;;;;;;;;;6270164;22;20738;-58
2021/12/19 10:03:59;;;;;;;1.55;1.40;;;;;;;;;;6270903;22;19996;-58
2021/12/19 10:06:26;;;;;;;7.22;3.05;;;;;;;;;;6269801;22;20003;-58
2021/12/19 10:09:10;;;;;;;2.08;1.98;;;;;;;;;;6243122;22;20030;-59
2021/12/19 10:14:24;;;;;;;0.00;0.00;;;;;;;;;;6280622;22;20008;-59
2021/12/19 10:16:49;;;;;;;0.00;0.00;;;;;;;;;;6270587;22;20401;-59
2021/12/19 10:19:14;;;;;;;2.00;2.00;;;;;;;;;;6270748;22;20078;-60
2021/12/19 10:21:40;;;;;;;0.65;0.65;;;;;;;;;;6270142;22;20027;-59
2021/12/19 10:24:06;;;;;;;3.00;2.80;;;;;;;;;;6270500;22;20022;-59
2021/12/19 10:26:44;;;;;;;1.20;1.17;;;;;;;;;;6269870;22;20000;-59
2021/12/19 10:29:10;;;;;;;1.17;1.17;;;;;;;;;;6269819;22;20004;-58
2021/12/19 10:31:36;;;;;;;0.00;0.00;;;;;;;;;;6269767;22;20006;-58
2021/12/19 10:34:21;;;;;;;0.10;0.10;;;;;;;;;;6270683;22;20004;-58
2021/12/19 10:36:46;;;;;;;0.00;0.00;;;;;;;;;;6270574;22;20007;-59
2021/12/19 10:39:13;;;;;;;0.08;0.08;;;;;;;;;;6270723;22;20011;-58
2021/12/19 10:41:40;;;;;;;0.00;0.00;;;;;;;;;;6269411;22;20011;-58
2021/12/19 10:44:10;;;;;;;0.00;0.00;;;;;;;;;;6270296;22;20078;-60
2021/12/19 10:46:39;;;;;;;0.00;0.00;;;;;;;;;;6270274;22;20076;-59
2021/12/19 10:49:14;;;;;;;2.25;2.03;;;;;;;;;;6270183;22;20007;-59
2021/12/19 10:51:39;;;;;;;1.52;1.52;;;;;;;;;;6269349;22;20028;-61
2021/12/19 10:54:07;;;;;;;1.20;1.20;;;;;;;;;;6271218;22;20000;-59
2021/12/19 10:56:36;;;;;;;1.13;0.30;;;;;;;;;;6271155;22;20031;-59
2021/12/19 10:59:04;;;;;;;15.85;2.42;;;;;;;;;;6270102;22;20031;-58
2021/12/19 11:01:33;;;;;;;0.00;0.00;;;;;;;;;;6243930;22;20031;-59
2021/12/19 11:04:05;;;;;;;0.43;0.43;;;;;;;;;;6271943;22;20004;-59
2021/12/19 11:06:41;;;;;;;0.00;0.00;;;;;;;;;;6271850;22;20003;-59
2021/12/19 11:09:06;;;;;;;0.00;0.00;;;;;;;;;;6271919;22;20018;-60
2021/12/19 11:11:31;;;;;;;0.00;0.00;;;;;;;;;;6271876;22;20464;-59
2021/12/19 11:13:57;;;;;;;0.00;0.00;;;;;;;;;;6272673;22;20022;-58
2021/12/19 11:16:22;;;;;;;0.00;0.00;;;;;;;;;;6272332;22;20078;-58
2021/12/19 11:18:48;;;;;;;2.97;2.45;;;;;;;;;;6272651;22;20004;-59
2021/12/19 11:21:13;;;;;;;19.90;2.95;;;;;;;;;;6272496;22;20004;-58
2021/12/19 11:23:39;;;;;;;0.20;0.20;;;;;;;;;;6271889;22;20393;-59
2021/12/19 11:26:04;;;;;;;0.00;0.00;;;;;;;;;;6272456;22;19999;-59
2021/12/19 11:28:29;;;;;;;2.95;1.45;;;;;;;;;;6271715;22;20007;-59
2021/12/19 11:30:55;;;;;;;0.00;0.00;;;;;;;;;;6272855;22;20295;-60
2021/12/19 11:33:39;;;;;;;0.00;0.00;;;;;;;;;;6244513;22;20003;-59
2021/12/19 11:36:05;;;;;;;0.00;0.00;;;;;;;;;;6273208;22;20006;-58
2021/12/19 11:38:30;;;;;;;0.00;0.00;;;;;;;;;;6272207;22;20004;-59
2021/12/19 11:40:55;;;;;;;0.00;0.00;;;;;;;;;;6272613;22;20030;-58
2021/12/19 11:43:22;;;;;;;0.00;0.00;;;;;;;;;;6271663;22;20024;-59
2021/12/19 11:45:58;;;;;;;0.00;0.00;;;;;;;;;;6272466;22;19999;-59
2021/12/19 11:48:27;;;;;;;0.00;0.00;;;;;;;;;;6271217;22;19998;-60
2021/12/19 11:51:00;;;;;;;0.03;0.03;;;;;;;;;;6272784;22;20000;-60
2021/12/19 11:53:27;;;;;;;0.98;0.98;;;;;;;;;;6271856;22;20082;-59
2021/12/19 11:55:57;;;;;;;0.00;0.00;;;;;;;;;;6272598;22;20748;-59
2021/12/19 11:58:23;;;;;;;0.00;0.00;;;;;;;;;;6271465;22;20437;-59
2021/12/19 12:00:53;;;;;;;0.00;0.00;;;;;;;;;;6272879;22;20479;-59
2021/12/19 12:03:21;;;;;;;0.80;0.80;;;;;;;;;;6271895;22;20011;-58
2021/12/19 12:05:50;;;;;;;0.00;0.00;;;;;;;;;;6273250;22;20003;-59
2021/12/19 12:08:23;;;;;;;0.00;0.00;;;;;;;;;;6272436;22;19996;-60
2021/12/19 12:10:52;;;;;;;0.00;0.00;;;;;;;;;;6271734;22;19995;-60
2021/12/19 12:13:21;;;;;;;0.00;0.00;;;;;;;;;;6272756;22;20000;-60
2021/12/19 12:15:49;;;;;;;0.00;0.00;;;;;;;;;;6271679;22;20012;-59
2021/12/19 12:18:31;;;;;;;0.00;0.00;;;;;;;;;;6243843;22;20030;-60
2021/12/19 12:20:57;;;;;;;0.52;0.52;;;;;;;;;;6271946;22;20023;-60
2021/12/19 12:23:26;;;;;;;0.05;0.05;;;;;;;;;;6271938;22;20019;-59
2021/12/19 12:25:51;;;;;;;0.00;0.00;;;;;;;;;;6271561;22;20000;-59
2021/12/19 12:28:18;;;;;;;0.00;0.00;;;;;;;;;;6271781;22;20067;-60
2021/12/19 12:30:45;;;;;;;0.10;0.10;;;;;;;;;;6266487;22;20073;-60
2021/12/19 12:33:14;;;;;;;0.15;0.15;;;;;;;;;;6270414;22;20078;-59
2021/12/19 12:35:40;;;;;;;0.00;0.00;;;;;;;;;;6269911;22;19999;-59
2021/12/19 12:38:06;;;;;;;0.38;0.38;;;;;;;;;;6269349;22;19999;-59
2021/12/19 12:40:43;;;;;;;0.10;0.10;;;;;;;;;;6270736;22;20082;-59
2021/12/19 12:43:09;;;;;;;2.90;2.75;;;;;;;;;;6272014;22;20011;-59
2021/12/19 12:45:48;;;;;;;0.00;0.00;;;;;;;;;;6270130;22;20002;-58
2021/12/19 12:48:24;;;;;;;0.85;0.85;;;;;;;;;;6271722;22;20003;-60
2021/12/19 12:50:50;;;;;;;0.00;0.00;;;;;;;;;;6273009;22;20452;-59
2021/12/19 12:53:26;;;;;;;0.00;0.00;;;;;;;;;;6273241;22;19999;-59
2021/12/19 12:56:08;;;;;;;3.35;3.25;;;;;;;;;;6271891;22;20056;-59
2021/12/19 12:58:35;;;;;;;1.75;1.65;;;;;;;;;;6220350;22;20016;-58
2021/12/19 13:01:17;;;;;;;0.63;0.22;;;;;;;;;;6273629;22;20008;-59
2021/12/19 13:03:54;;;;;;;0.55;0.52;;;;;;;;;;6272701;22;20497;-59
2021/12/19 13:06:38;;;;;;;2.85;1.30;;;;;;;;;;6270325;22;20410;-59
2021/12/19 13:09:22;;;;;;;1.85;0.30;;;;;;;;;;6271275;22;20000;-59
2021/12/19 13:11:49;;;;;;;3.47;0.52;;;;;;;;;;6270916;22;20000;-60
2021/12/19 13:14:20;;;;;;;1.13;1.13;;;;;;;;;;6269275;22;20337;-59
2021/12/19 13:16:47;;;;;;;0.00;0.00;;;;;;;;;;6269101;22;20299;-59
2021/12/19 13:19:31;;;;;;;1.48;1.38;;;;;;;;;;6271227;22;20007;-60
2021/12/19 13:21:57;;;;;;;4.03;1.85;;;;;;;;;;6243648;22;20130;-60
2021/12/19 13:24:24;;;;;;;4.07;3.78;;;;;;;;;;6270894;22;20386;-60
2021/12/19 13:27:02;;;;;;;0.13;0.13;;;;;;;;;;6271631;22;19995;-59
2021/12/19 13:29:27;;;;;;;0.17;0.17;;;;;;;;;;6272049;22;20035;-59
2021/12/19 13:31:52;;;;;;;0.52;0.52;;;;;;;;;;6270241;22;20003;-60
2021/12/19 13:34:17;;;;;;;2.90;2.35;;;;;;;;;;6271649;22;20000;-58
2021/12/19 13:36:43;;;;;;;1.38;1.08;;;;;;;;;;6269457;22;20000;-60
2021/12/19 13:39:17;;;;;;;0.10;0.10;;;;;;;;;;6270988;22;20000;-59
2021/12/19 13:41:43;;;;;;;3.92;3.53;;;;;;;;;;6268534;22;20004;-60
2021/12/19 13:44:08;;;;;;;1.20;1.20;;;;;;;;;;6270974;22;20004;-59
2021/12/19 13:46:33;;;;;;;5.57;1.60;;;;;;;;;;6270837;22;20003;-58
2021/12/19 13:48:59;;;;;;;4.03;2.05;;;;;;;;;;6270787;22;20002;-59
2021/12/19 13:51:27;;;;;;;0.95;0.95;;;;;;;;;;6242307;22;20001;-58
2021/12/19 13:53:56;;;;;;;0.00;0.00;;;;;;;;;;6271115;22;20027;-59
2021/12/19 13:56:29;;;;;;;1.23;1.15;;;;;;;;;;6270876;22;20125;-59
2021/12/19 13:58:56;;;;;;;0.75;0.75;;;;;;;;;;6268030;22;20061;-60
2021/12/19 14:01:29;;;;;;;2.33;1.00;;;;;;;;;;6269697;22;20034;-61
2021/12/19 14:03:59;;;;;;;2.47;2.05;;;;;;;;;;6268180;22;20011;-60
2021/12/19 14:06:29;;;;;;;0.68;0.68;;;;;;;;;;6269520;22;20000;-61
2021/12/19 14:08:55;;;;;;;5.95;2.40;;;;;;;;;;6269510;22;20002;-60
2021/12/19 14:11:22;;;;;;;0.00;0.00;;;;;;;;;;6269293;22;20019;-60
2021/12/19 14:14:05;;;;;;;0.75;0.75;;;;;;;;;;6268107;22;20003;-60
2021/12/19 14:16:34;;;;;;;4.07;1.27;;;;;;;;;;6268300;22;19996;-60
2021/12/19 14:19:00;;;;;;;0.70;0.70;;;;;;;;;;6241729;22;20479;-60
2021/12/19 14:21:30;;;;;;;0.93;0.85;;;;;;;;;;6268235;22;20079;-60
2021/12/19 14:24:08;;;;;;;0.22;0.22;;;;;;;;;;6269561;22;20003;-60
2021/12/19 14:26:34;;;;;;;0.00;0.00;;;;;;;;;;6269871;22;19999;-59
2021/12/19 14:28:59;;;;;;;1.08;0.47;;;;;;;;;;6271464;22;20226;-58
2021/12/19 14:31:24;;;;;;;0.73;0.73;;;;;;;;;;6270974;22;20007;-58
2021/12/19 14:33:50;;;;;;;0.75;0.75;;;;;;;;;;6271335;22;19999;-59
2021/12/19 14:36:26;;;;;;;0.00;0.00;;;;;;;;;;6272159;22;20079;-58
2021/12/19 14:38:59;;;;;;;3.50;1.17;;;;;;;;;;6271411;22;20034;-59
2021/12/19 14:41:27;;;;;;;2.08;1.88;;;;;;;;;;6270917;22;20406;-59
2021/12/19 14:43:53;;;;;;;1.67;1.58;;;;;;;;;;6269872;22;20390;-59
2021/12/19 14:46:25;;;;;;;0.00;0.00;;;;;;;;;;6271965;22;19996;-59
2021/12/19 14:48:50;;;;;;;0.00;0.00;;;;;;;;;;6270577;22;20003;-58
2021/12/19 14:51:23;;;;;;;1.67;1.58;;;;;;;;;;6271144;22;19992;-59
2021/12/19 14:53:57;;;;;;;0.00;0.00;;;;;;;;;;6270898;22;20027;-59
2021/12/19 14:56:24;;;;;;;0.05;0.05;;;;;;;;;;6271301;22;20057;-59
2021/12/19 14:58:54;;;;;;;0.32;0.32;;;;;;;;;;6270295;22;20095;-58
2021/12/19 15:01:20;;;;;;;2.13;1.98;;;;;;;;;;6271376;22;20000;-59
2021/12/19 15:03:58;;;;;;;3.50;1.00;;;;;;;;;;6270012;22;20012;-60
2021/12/19 15:06:24;;;;;;;0.00;0.00;;;;;;;;;;6271364;22;19996;-59
2021/12/19 15:08:51;;;;;;;0.00;0.00;;;;;;;;;;6269955;22;20002;-59
2021/12/19 15:11:16;;;;;;;0.25;0.25;;;;;;;;;;6271020;22;20003;-59
2021/12/19 15:13:42;;;;;;;0.32;0.32;;;;;;;;;;6269981;22;20026;-58
2021/12/19 15:16:08;;;;;;;0.88;0.77;;;;;;;;;;6270989;22;20049;-59
2021/12/19 15:18:35;;;;;;;0.65;0.65;;;;;;;;;;6269327;22;20074;-59
2021/12/19 15:21:00;;;;;;;0.10;0.10;;;;;;;;;;6271120;22;19996;-58
2021/12/19 15:23:26;;;;;;;0.52;0.52;;;;;;;;;;6269618;22;20061;-59
2021/12/19 15:25:52;;;;;;;0.15;0.15;;;;;;;;;;6271196;22;20031;-59
2021/12/19 15:28:19;;;;;;;0.95;0.95;;;;;;;;;;6271221;22;20011;-58
2021/12/19 15:30:45;;;;;;;0.10;0.10;;;;;;;;;;6272028;22;20467;-58
2021/12/19 15:33:11;;;;;;;1.08;1.08;;;;;;;;;;6244738;22;20486;-58
2021/12/19 15:35:36;;;;;;;1.27;1.27;;;;;;;;;;6271131;22;20027;-59
2021/12/19 15:38:02;;;;;;;0.00;0.00;;;;;;;;;;6270024;22;20011;-59
2021/12/19 15:40:28;;;;;;;0.52;0.52;;;;;;;;;;6268206;22;20028;-60
2021/12/19 15:42:53;;;;;;;0.03;0.03;;;;;;;;;;6270493;22;20522;-57
2021/12/19 15:45:18;;;;;;;0.00;0.00;;;;;;;;;;6272103;22;19996;-58
2021/12/19 15:47:44;;;;;;;0.05;0.05;;;;;;;;;;6270776;22;20115;-59
2021/12/19 15:50:09;;;;;;;1.40;1.35;;;;;;;;;;6270781;22;20029;-59